sensor_id;sensor_type;location;lat;lon;timestamp;temperature;humidity
20200;DHT22;36284;37.236;-121.934;2023-06-26T00:01:35;23.00;99.90
20200;DHT22;36284;37.236;-121.934;2023-06-26T00:04:02;23.20;99.90
20200;DHT22;36284;37.236;-121.934;2023-06-26T00:06:29;23.00;99.90
20200;DHT22;36284;37.236;-121.934;2023-06-26T00:08:56;22.20;99.90
20200;DHT22;36284;37.236;-121.934;2023-06-26T00:11:25;22.80;99.90
20200;DHT22;36284;37.236;-121.934;2023-06-26T00:13:53;23.10;99.90
20200;DHT22;36284;37.236;-121.934;2023-06-26T00:16:20;23.50;99.90
20200;DHT22;36284;37.236;-121.934;2023-06-26T00:18:47;23.40;99.90
20200;DHT22;36284;37.236;-121.934;2023-06-26T00:21:14;22.50;99.90
20200;DHT22;36284;37.236;-121.934;2023-06-26T00:23:41;22.70;99.90
20200;DHT22;36284;37.236;-121.934;2023-06-26T00:26:08;22.50;99.90
20200;DHT22;36284;37.236;-121.934;2023-06-26T00:28:36;22.50;99.90
20200;DHT22;36284;37.236;-121.934;2023-06-26T00:31:03;22.80;99.90
20200;DHT22;36284;37.236;-121.934;2023-06-26T00:33:30;22.70;99.90
20200;DHT22;36284;37.236;-121.934;2023-06-26T00:35:57;22.90;99.90
20200;DHT22;36284;37.236;-121.934;2023-06-26T00:38:24;22.60;99.90
20200;DHT22;36284;37.236;-121.934;2023-06-26T00:40:51;22.10;99.90
20200;DHT22;36284;37.236;-121.934;2023-06-26T00:43:18;22.70;99.90
20200;DHT22;36284;37.236;-121.934;2023-06-26T00:45:45;22.60;99.90
20200;DHT22;36284;37.236;-121.934;2023-06-26T00:48:12;21.90;99.90
20200;DHT22;36284;37.236;-121.934;2023-06-26T00:50:40;22.20;99.90
20200;DHT22;36284;37.236;-121.934;2023-06-26T00:53:09;22.00;99.90
20200;DHT22;36284;37.236;-121.934;2023-06-26T00:55:37;21.90;99.90
20200;DHT22;36284;37.236;-121.934;2023-06-26T00:58:05;21.50;99.90
20200;DHT22;36284;37.236;-121.934;2023-06-26T01:02:59;21.00;99.90
20200;DHT22;36284;37.236;-121.934;2023-06-26T01:05:27;21.40;99.90
20200;DHT22;36284;37.236;-121.934;2023-06-26T01:07:55;21.00;99.90
20200;DHT22;36284;37.236;-121.934;2023-06-26T01:10:24;21.10;99.90
20200;DHT22;36284;37.236;-121.934;2023-06-26T01:12:54;21.30;99.90
20200;DHT22;36284;37.236;-121.934;2023-06-26T01:15:21;21.10;99.90
20200;DHT22;36284;37.236;-121.934;2023-06-26T01:17:50;21.10;99.90
20200;DHT22;36284;37.236;-121.934;2023-06-26T01:20:17;20.70;99.90
20200;DHT22;36284;37.236;-121.934;2023-06-26T01:25:56;20.70;99.90
20200;DHT22;36284;37.236;-121.934;2023-06-26T01:28:28;20.70;99.90
20200;DHT22;36284;37.236;-121.934;2023-06-26T01:30:56;20.60;99.90
20200;DHT22;36284;37.236;-121.934;2023-06-26T01:33:23;19.90;99.90
20200;DHT22;36284;37.236;-121.934;2023-06-26T01:35:51;20.10;99.90
20200;DHT22;36284;37.236;-121.934;2023-06-26T01:38:20;20.10;99.90
20200;DHT22;36284;37.236;-121.934;2023-06-26T01:40:47;19.70;99.90
20200;DHT22;36284;37.236;-121.934;2023-06-26T01:49:02;19.80;99.90
20200;DHT22;36284;37.236;-121.934;2023-06-26T01:51:32;19.30;99.90
20200;DHT22;36284;37.236;-121.934;2023-06-26T01:54:02;19.40;99.90
20200;DHT22;36284;37.236;-121.934;2023-06-26T01:56:31;19.20;99.90
20200;DHT22;36284;37.236;-121.934;2023-06-26T01:59:00;19.30;99.90
20200;DHT22;36284;37.236;-121.934;2023-06-26T02:01:28;19.30;99.90
20200;DHT22;36284;37.236;-121.934;2023-06-26T02:03:57;19.00;99.90
20200;DHT22;36284;37.236;-121.934;2023-06-26T02:06:24;19.10;99.90
20200;DHT22;36284;37.236;-121.934;2023-06-26T02:08:51;18.90;99.90
20200;DHT22;36284;37.236;-121.934;2023-06-26T02:11:18;18.60;99.90
20200;DHT22;36284;37.236;-121.934;2023-06-26T02:13:45;18.60;99.90
20200;DHT22;36284;37.236;-121.934;2023-06-26T02:16:12;18.40;99.90
20200;DHT22;36284;37.236;-121.934;2023-06-26T02:18:39;18.10;99.90
20200;DHT22;36284;37.236;-121.934;2023-06-26T02:21:07;18.30;99.90
20200;DHT22;36284;37.236;-121.934;2023-06-26T02:23:34;18.50;99.90
20200;DHT22;36284;37.236;-121.934;2023-06-26T02:26:01;18.60;99.90
20200;DHT22;36284;37.236;-121.934;2023-06-26T02:28:28;18.50;99.90
20200;DHT22;36284;37.236;-121.934;2023-06-26T02:30:55;18.20;99.90
20200;DHT22;36284;37.236;-121.934;2023-06-26T02:33:22;18.30;99.90
20200;DHT22;36284;37.236;-121.934;2023-06-26T02:35:49;18.20;99.90
20200;DHT22;36284;37.236;-121.934;2023-06-26T02:38:17;18.10;99.90
20200;DHT22;36284;37.236;-121.934;2023-06-26T02:40:43;18.10;99.90
20200;DHT22;36284;37.236;-121.934;2023-06-26T02:43:10;18.00;99.90
20200;DHT22;36284;37.236;-121.934;2023-06-26T02:45:37;17.90;99.90
20200;DHT22;36284;37.236;-121.934;2023-06-26T02:48:04;17.90;99.90
20200;DHT22;36284;37.236;-121.934;2023-06-26T02:50:31;18.00;99.90
20200;DHT22;36284;37.236;-121.934;2023-06-26T02:52:58;18.00;99.90
20200;DHT22;36284;37.236;-121.934;2023-06-26T02:55:27;17.90;99.90
20200;DHT22;36284;37.236;-121.934;2023-06-26T02:57:54;17.60;99.90
20200;DHT22;36284;37.236;-121.934;2023-06-26T03:00:20;17.80;99.90
20200;DHT22;36284;37.236;-121.934;2023-06-26T03:02:47;17.50;99.90
20200;DHT22;36284;37.236;-121.934;2023-06-26T03:05:14;17.30;99.90
20200;DHT22;36284;37.236;-121.934;2023-06-26T03:07:41;17.40;99.90
20200;DHT22;36284;37.236;-121.934;2023-06-26T03:10:08;17.60;99.90
20200;DHT22;36284;37.236;-121.934;2023-06-26T03:12:35;17.60;99.90
20200;DHT22;36284;37.236;-121.934;2023-06-26T03:15:02;17.30;99.90
20200;DHT22;36284;37.236;-121.934;2023-06-26T03:17:29;17.50;99.90
20200;DHT22;36284;37.236;-121.934;2023-06-26T03:19:56;17.40;99.90
20200;DHT22;36284;37.236;-121.934;2023-06-26T03:22:23;17.30;99.90
20200;DHT22;36284;37.236;-121.934;2023-06-26T03:24:50;17.20;99.90
20200;DHT22;36284;37.236;-121.934;2023-06-26T03:27:17;16.90;99.90
20200;DHT22;36284;37.236;-121.934;2023-06-26T03:29:44;16.70;99.90
20200;DHT22;36284;37.236;-121.934;2023-06-26T03:32:11;16.90;99.90
20200;DHT22;36284;37.236;-121.934;2023-06-26T03:34:38;16.90;99.90
20200;DHT22;36284;37.236;-121.934;2023-06-26T03:37:05;16.90;99.90
20200;DHT22;36284;37.236;-121.934;2023-06-26T03:39:32;17.00;99.90
20200;DHT22;36284;37.236;-121.934;2023-06-26T03:41:59;16.80;99.90
20200;DHT22;36284;37.236;-121.934;2023-06-26T03:44:27;16.80;99.90
20200;DHT22;36284;37.236;-121.934;2023-06-26T03:46:54;16.70;99.90
20200;DHT22;36284;37.236;-121.934;2023-06-26T03:49:21;16.50;99.90
20200;DHT22;36284;37.236;-121.934;2023-06-26T03:51:48;16.60;99.90
20200;DHT22;36284;37.236;-121.934;2023-06-26T03:54:15;16.70;99.90
20200;DHT22;36284;37.236;-121.934;2023-06-26T03:56:42;16.30;99.90
20200;DHT22;36284;37.236;-121.934;2023-06-26T03:59:10;16.40;99.90
20200;DHT22;36284;37.236;-121.934;2023-06-26T04:01:37;16.40;99.90
20200;DHT22;36284;37.236;-121.934;2023-06-26T04:04:04;16.20;99.90
20200;DHT22;36284;37.236;-121.934;2023-06-26T04:06:32;16.20;99.90
20200;DHT22;36284;37.236;-121.934;2023-06-26T04:08:59;16.40;99.90
20200;DHT22;36284;37.236;-121.934;2023-06-26T04:11:27;16.30;99.90
20200;DHT22;36284;37.236;-121.934;2023-06-26T04:13:54;16.50;99.90
20200;DHT22;36284;37.236;-121.934;2023-06-26T04:16:21;16.50;99.90
20200;DHT22;36284;37.236;-121.934;2023-06-26T04:18:52;16.50;99.90
20200;DHT22;36284;37.236;-121.934;2023-06-26T04:21:19;16.20;99.90
20200;DHT22;36284;37.236;-121.934;2023-06-26T04:23:46;16.20;99.90
20200;DHT22;36284;37.236;-121.934;2023-06-26T04:26:14;16.20;99.90
20200;DHT22;36284;37.236;-121.934;2023-06-26T04:28:41;16.30;99.90
20200;DHT22;36284;37.236;-121.934;2023-06-26T04:31:09;16.30;99.90
20200;DHT22;36284;37.236;-121.934;2023-06-26T04:33:36;16.20;99.90
20200;DHT22;36284;37.236;-121.934;2023-06-26T04:36:04;16.10;99.90
20200;DHT22;36284;37.236;-121.934;2023-06-26T04:38:32;16.20;99.90
20200;DHT22;36284;37.236;-121.934;2023-06-26T04:41:00;16.20;99.90
20200;DHT22;36284;37.236;-121.934;2023-06-26T04:43:27;16.10;99.90
20200;DHT22;36284;37.236;-121.934;2023-06-26T04:45:54;16.10;99.90
20200;DHT22;36284;37.236;-121.934;2023-06-26T04:48:21;16.10;99.90
20200;DHT22;36284;37.236;-121.934;2023-06-26T04:50:48;16.10;99.90
20200;DHT22;36284;37.236;-121.934;2023-06-26T04:53:23;16.10;99.90
20200;DHT22;36284;37.236;-121.934;2023-06-26T04:55:51;16.00;99.90
20200;DHT22;36284;37.236;-121.934;2023-06-26T04:58:18;16.00;99.90
20200;DHT22;36284;37.236;-121.934;2023-06-26T05:00:46;16.10;99.90
20200;DHT22;36284;37.236;-121.934;2023-06-26T05:03:14;16.00;99.90
20200;DHT22;36284;37.236;-121.934;2023-06-26T05:05:43;16.00;99.90
20200;DHT22;36284;37.236;-121.934;2023-06-26T05:08:18;15.70;99.90
20200;DHT22;36284;37.236;-121.934;2023-06-26T05:10:45;15.70;99.90
20200;DHT22;36284;37.236;-121.934;2023-06-26T05:13:13;15.70;99.90
20200;DHT22;36284;37.236;-121.934;2023-06-26T05:15:46;15.60;99.90
20200;DHT22;36284;37.236;-121.934;2023-06-26T05:18:13;15.70;99.90
20200;DHT22;36284;37.236;-121.934;2023-06-26T05:20:40;15.90;99.90
20200;DHT22;36284;37.236;-121.934;2023-06-26T05:23:07;15.80;99.90
20200;DHT22;36284;37.236;-121.934;2023-06-26T05:25:35;15.80;99.90
20200;DHT22;36284;37.236;-121.934;2023-06-26T05:28:03;15.90;99.90
20200;DHT22;36284;37.236;-121.934;2023-06-26T05:30:36;15.90;99.90
20200;DHT22;36284;37.236;-121.934;2023-06-26T05:33:04;15.80;99.90
20200;DHT22;36284;37.236;-121.934;2023-06-26T05:35:33;15.80;99.90
20200;DHT22;36284;37.236;-121.934;2023-06-26T05:38:00;15.70;99.90
20200;DHT22;36284;37.236;-121.934;2023-06-26T05:40:28;15.70;99.90
20200;DHT22;36284;37.236;-121.934;2023-06-26T05:42:55;15.60;99.90
20200;DHT22;36284;37.236;-121.934;2023-06-26T05:45:22;15.70;99.90
20200;DHT22;36284;37.236;-121.934;2023-06-26T05:47:49;15.70;99.90
20200;DHT22;36284;37.236;-121.934;2023-06-26T05:50:18;15.80;99.90
20200;DHT22;36284;37.236;-121.934;2023-06-26T05:52:46;15.80;99.90
20200;DHT22;36284;37.236;-121.934;2023-06-26T05:55:13;15.70;99.90
20200;DHT22;36284;37.236;-121.934;2023-06-26T05:57:41;15.60;99.90
20200;DHT22;36284;37.236;-121.934;2023-06-26T06:00:08;15.60;99.90
20200;DHT22;36284;37.236;-121.934;2023-06-26T06:02:38;15.50;99.90
20200;DHT22;36284;37.236;-121.934;2023-06-26T06:05:05;15.50;99.90
20200;DHT22;36284;37.236;-121.934;2023-06-26T06:07:33;15.50;99.90
20200;DHT22;36284;37.236;-121.934;2023-06-26T06:10:02;15.50;99.90
20200;DHT22;36284;37.236;-121.934;2023-06-26T06:12:30;15.50;99.90
20200;DHT22;36284;37.236;-121.934;2023-06-26T06:14:57;15.60;99.90
20200;DHT22;36284;37.236;-121.934;2023-06-26T06:17:24;15.50;99.90
20200;DHT22;36284;37.236;-121.934;2023-06-26T06:19:51;15.40;99.90
20200;DHT22;36284;37.236;-121.934;2023-06-26T06:22:17;15.40;99.90
20200;DHT22;36284;37.236;-121.934;2023-06-26T06:24:44;15.50;99.90
20200;DHT22;36284;37.236;-121.934;2023-06-26T06:27:11;15.50;99.90
20200;DHT22;36284;37.236;-121.934;2023-06-26T06:29:39;15.50;99.90
20200;DHT22;36284;37.236;-121.934;2023-06-26T06:32:07;15.60;99.90
20200;DHT22;36284;37.236;-121.934;2023-06-26T06:34:34;15.60;99.90
20200;DHT22;36284;37.236;-121.934;2023-06-26T06:37:02;15.50;99.90
20200;DHT22;36284;37.236;-121.934;2023-06-26T06:39:29;15.50;99.90
20200;DHT22;36284;37.236;-121.934;2023-06-26T06:41:56;15.40;99.90
20200;DHT22;36284;37.236;-121.934;2023-06-26T06:44:23;15.40;99.90
20200;DHT22;36284;37.236;-121.934;2023-06-26T06:46:50;15.30;99.90
20200;DHT22;36284;37.236;-121.934;2023-06-26T06:49:17;15.30;99.90
20200;DHT22;36284;37.236;-121.934;2023-06-26T06:51:44;15.20;99.90
20200;DHT22;36284;37.236;-121.934;2023-06-26T06:54:11;15.30;99.90
20200;DHT22;36284;37.236;-121.934;2023-06-26T06:56:38;15.20;99.90
20200;DHT22;36284;37.236;-121.934;2023-06-26T06:59:04;15.10;99.90
20200;DHT22;36284;37.236;-121.934;2023-06-26T07:01:31;15.10;99.90
20200;DHT22;36284;37.236;-121.934;2023-06-26T07:03:58;15.00;99.90
20200;DHT22;36284;37.236;-121.934;2023-06-26T07:06:25;15.10;99.90
20200;DHT22;36284;37.236;-121.934;2023-06-26T07:08:52;15.10;99.90
20200;DHT22;36284;37.236;-121.934;2023-06-26T07:11:19;15.10;99.90
20200;DHT22;36284;37.236;-121.934;2023-06-26T07:13:46;15.20;99.90
20200;DHT22;36284;37.236;-121.934;2023-06-26T07:16:13;15.10;99.90
20200;DHT22;36284;37.236;-121.934;2023-06-26T07:18:41;15.10;99.90
20200;DHT22;36284;37.236;-121.934;2023-06-26T07:21:09;15.10;99.90
20200;DHT22;36284;37.236;-121.934;2023-06-26T07:23:36;15.10;99.90
20200;DHT22;36284;37.236;-121.934;2023-06-26T07:26:03;15.10;99.90
20200;DHT22;36284;37.236;-121.934;2023-06-26T07:28:30;15.00;99.90
20200;DHT22;36284;37.236;-121.934;2023-06-26T07:30:57;15.10;99.90
20200;DHT22;36284;37.236;-121.934;2023-06-26T07:33:24;15.10;99.90
20200;DHT22;36284;37.236;-121.934;2023-06-26T07:35:51;15.10;99.90
20200;DHT22;36284;37.236;-121.934;2023-06-26T07:38:18;15.20;99.90
20200;DHT22;36284;37.236;-121.934;2023-06-26T07:40:45;15.10;99.90
20200;DHT22;36284;37.236;-121.934;2023-06-26T07:43:12;15.10;99.90
20200;DHT22;36284;37.236;-121.934;2023-06-26T07:45:38;15.10;99.90
20200;DHT22;36284;37.236;-121.934;2023-06-26T07:48:06;15.00;99.90
20200;DHT22;36284;37.236;-121.934;2023-06-26T07:50:34;14.90;99.90
20200;DHT22;36284;37.236;-121.934;2023-06-26T07:53:00;14.90;99.90
20200;DHT22;36284;37.236;-121.934;2023-06-26T07:55:28;15.00;99.90
20200;DHT22;36284;37.236;-121.934;2023-06-26T07:57:55;15.20;99.90
20200;DHT22;36284;37.236;-121.934;2023-06-26T08:00:22;15.10;99.90
20200;DHT22;36284;37.236;-121.934;2023-06-26T08:02:49;15.10;99.90
20200;DHT22;36284;37.236;-121.934;2023-06-26T08:05:16;14.90;99.90
20200;DHT22;36284;37.236;-121.934;2023-06-26T08:07:43;14.90;99.90
20200;DHT22;36284;37.236;-121.934;2023-06-26T08:10:10;14.90;99.90
20200;DHT22;36284;37.236;-121.934;2023-06-26T08:12:37;15.00;99.90
20200;DHT22;36284;37.236;-121.934;2023-06-26T08:15:07;15.10;99.90
20200;DHT22;36284;37.236;-121.934;2023-06-26T08:17:34;15.10;99.90
20200;DHT22;36284;37.236;-121.934;2023-06-26T08:20:02;15.10;99.90
20200;DHT22;36284;37.236;-121.934;2023-06-26T08:22:30;15.10;99.90
20200;DHT22;36284;37.236;-121.934;2023-06-26T08:24:57;15.10;99.90
20200;DHT22;36284;37.236;-121.934;2023-06-26T08:27:24;15.10;99.90
20200;DHT22;36284;37.236;-121.934;2023-06-26T08:29:51;15.00;99.90
20200;DHT22;36284;37.236;-121.934;2023-06-26T08:32:18;14.90;99.90
20200;DHT22;36284;37.236;-121.934;2023-06-26T08:34:45;14.90;99.90
20200;DHT22;36284;37.236;-121.934;2023-06-26T08:37:12;15.10;99.90
20200;DHT22;36284;37.236;-121.934;2023-06-26T08:39:39;15.10;99.90
20200;DHT22;36284;37.236;-121.934;2023-06-26T08:42:06;14.90;99.90
20200;DHT22;36284;37.236;-121.934;2023-06-26T08:44:33;14.90;99.90
20200;DHT22;36284;37.236;-121.934;2023-06-26T08:47:01;15.00;99.90
20200;DHT22;36284;37.236;-121.934;2023-06-26T08:52:22;15.20;99.90
20200;DHT22;36284;37.236;-121.934;2023-06-26T08:54:56;15.30;99.90
20200;DHT22;36284;37.236;-121.934;2023-06-26T08:57:25;15.20;99.90
20200;DHT22;36284;37.236;-121.934;2023-06-26T08:59:52;15.10;99.90
20200;DHT22;36284;37.236;-121.934;2023-06-26T09:02:20;15.20;99.90
20200;DHT22;36284;37.236;-121.934;2023-06-26T09:04:48;15.20;99.90
20200;DHT22;36284;37.236;-121.934;2023-06-26T09:07:17;15.20;99.90
20200;DHT22;36284;37.236;-121.934;2023-06-26T09:09:44;15.10;99.90
20200;DHT22;36284;37.236;-121.934;2023-06-26T09:12:11;15.10;99.90
20200;DHT22;36284;37.236;-121.934;2023-06-26T09:14:40;15.00;99.90
20200;DHT22;36284;37.236;-121.934;2023-06-26T09:17:07;14.90;99.90
20200;DHT22;36284;37.236;-121.934;2023-06-26T09:19:37;14.90;99.90
20200;DHT22;36284;37.236;-121.934;2023-06-26T09:22:05;14.90;99.90
20200;DHT22;36284;37.236;-121.934;2023-06-26T09:24:37;15.00;99.90
20200;DHT22;36284;37.236;-121.934;2023-06-26T09:27:04;15.00;99.90
20200;DHT22;36284;37.236;-121.934;2023-06-26T09:29:33;14.90;99.90
20200;DHT22;36284;37.236;-121.934;2023-06-26T09:32:00;14.90;99.90
20200;DHT22;36284;37.236;-121.934;2023-06-26T09:37:00;14.70;99.90
20200;DHT22;36284;37.236;-121.934;2023-06-26T09:39:33;15.10;99.90
20200;DHT22;36284;37.236;-121.934;2023-06-26T09:42:00;15.00;99.90
20200;DHT22;36284;37.236;-121.934;2023-06-26T09:44:31;15.00;99.90
20200;DHT22;36284;37.236;-121.934;2023-06-26T09:46:58;15.00;99.90
20200;DHT22;36284;37.236;-121.934;2023-06-26T09:49:25;14.90;99.90
20200;DHT22;36284;37.236;-121.934;2023-06-26T09:51:53;14.90;99.90
20200;DHT22;36284;37.236;-121.934;2023-06-26T09:54:21;14.90;99.90
20200;DHT22;36284;37.236;-121.934;2023-06-26T09:56:49;14.90;99.90
20200;DHT22;36284;37.236;-121.934;2023-06-26T09:59:16;14.80;99.90
20200;DHT22;36284;37.236;-121.934;2023-06-26T10:01:45;14.90;99.90
20200;DHT22;36284;37.236;-121.934;2023-06-26T10:04:13;14.80;99.90
20200;DHT22;36284;37.236;-121.934;2023-06-26T10:06:46;14.80;99.90
20200;DHT22;36284;37.236;-121.934;2023-06-26T10:09:20;14.80;99.90
20200;DHT22;36284;37.236;-121.934;2023-06-26T10:11:57;14.80;99.90
20200;DHT22;36284;37.236;-121.934;2023-06-26T10:14:29;14.70;99.90
20200;DHT22;36284;37.236;-121.934;2023-06-26T10:16:59;14.80;99.90
20200;DHT22;36284;37.236;-121.934;2023-06-26T10:19:27;14.80;99.90
20200;DHT22;36284;37.236;-121.934;2023-06-26T10:21:55;14.60;99.90
20200;DHT22;36284;37.236;-121.934;2023-06-26T10:24:23;14.70;99.90
20200;DHT22;36284;37.236;-121.934;2023-06-26T10:26:54;14.70;99.90
20200;DHT22;36284;37.236;-121.934;2023-06-26T10:29:25;14.70;99.90
20200;DHT22;36284;37.236;-121.934;2023-06-26T10:31:55;14.70;99.90
20200;DHT22;36284;37.236;-121.934;2023-06-26T10:34:24;14.70;99.90
20200;DHT22;36284;37.236;-121.934;2023-06-26T10:37:02;14.70;99.90
20200;DHT22;36284;37.236;-121.934;2023-06-26T10:42:17;14.70;99.90
20200;DHT22;36284;37.236;-121.934;2023-06-26T10:44:47;14.70;99.90
20200;DHT22;36284;37.236;-121.934;2023-06-26T10:47:31;14.70;99.90
20200;DHT22;36284;37.236;-121.934;2023-06-26T10:50:29;14.70;99.90
20200;DHT22;36284;37.236;-121.934;2023-06-26T10:56:03;14.60;99.90
20200;DHT22;36284;37.236;-121.934;2023-06-26T10:58:41;14.60;99.90
20200;DHT22;36284;37.236;-121.934;2023-06-26T11:01:21;14.70;99.90
20200;DHT22;36284;37.236;-121.934;2023-06-26T11:04:04;14.70;99.90
20200;DHT22;36284;37.236;-121.934;2023-06-26T11:06:33;14.70;99.90
20200;DHT22;36284;37.236;-121.934;2023-06-26T11:09:09;14.70;99.90
20200;DHT22;36284;37.236;-121.934;2023-06-26T11:14:26;14.70;99.90
20200;DHT22;36284;37.236;-121.934;2023-06-26T11:16:57;14.70;99.90
20200;DHT22;36284;37.236;-121.934;2023-06-26T11:19:26;14.70;99.90
20200;DHT22;36284;37.236;-121.934;2023-06-26T11:22:04;14.60;99.90
20200;DHT22;36284;37.236;-121.934;2023-06-26T11:24:32;14.60;99.90
20200;DHT22;36284;37.236;-121.934;2023-06-26T11:27:03;14.70;99.90
20200;DHT22;36284;37.236;-121.934;2023-06-26T11:29:31;14.80;99.90
20200;DHT22;36284;37.236;-121.934;2023-06-26T11:32:02;14.70;99.90
20200;DHT22;36284;37.236;-121.934;2023-06-26T11:34:32;14.70;99.90
20200;DHT22;36284;37.236;-121.934;2023-06-26T11:36:59;14.80;99.90
20200;DHT22;36284;37.236;-121.934;2023-06-26T11:39:27;14.60;99.90
20200;DHT22;36284;37.236;-121.934;2023-06-26T11:41:54;14.60;99.90
20200;DHT22;36284;37.236;-121.934;2023-06-26T11:44:21;14.50;99.90
20200;DHT22;36284;37.236;-121.934;2023-06-26T11:46:51;14.60;99.90
20200;DHT22;36284;37.236;-121.934;2023-06-26T11:49:22;14.70;99.90
20200;DHT22;36284;37.236;-121.934;2023-06-26T11:51:49;14.70;99.90
20200;DHT22;36284;37.236;-121.934;2023-06-26T11:54:23;14.70;99.90
20200;DHT22;36284;37.236;-121.934;2023-06-26T11:56:58;14.60;99.90
20200;DHT22;36284;37.236;-121.934;2023-06-26T11:59:39;14.60;99.90
20200;DHT22;36284;37.236;-121.934;2023-06-26T12:02:07;14.40;99.90
20200;DHT22;36284;37.236;-121.934;2023-06-26T12:04:36;14.40;99.90
20200;DHT22;36284;37.236;-121.934;2023-06-26T12:07:06;14.50;99.90
20200;DHT22;36284;37.236;-121.934;2023-06-26T12:09:39;14.60;99.90
20200;DHT22;36284;37.236;-121.934;2023-06-26T12:12:08;14.50;99.90
20200;DHT22;36284;37.236;-121.934;2023-06-26T12:14:36;14.50;99.90
20200;DHT22;36284;37.236;-121.934;2023-06-26T12:17:13;14.50;99.90
20200;DHT22;36284;37.236;-121.934;2023-06-26T12:19:47;14.30;99.90
20200;DHT22;36284;37.236;-121.934;2023-06-26T12:22:18;14.30;99.90
20200;DHT22;36284;37.236;-121.934;2023-06-26T12:24:46;14.30;99.90
20200;DHT22;36284;37.236;-121.934;2023-06-26T12:27:15;14.30;99.90
20200;DHT22;36284;37.236;-121.934;2023-06-26T12:29:53;14.30;99.90
20200;DHT22;36284;37.236;-121.934;2023-06-26T12:32:24;14.40;99.90
20200;DHT22;36284;37.236;-121.934;2023-06-26T12:34:52;14.40;99.90
20200;DHT22;36284;37.236;-121.934;2023-06-26T12:37:19;14.30;99.90
20200;DHT22;36284;37.236;-121.934;2023-06-26T12:39:55;14.30;99.90
20200;DHT22;36284;37.236;-121.934;2023-06-26T12:42:26;14.20;99.90
20200;DHT22;36284;37.236;-121.934;2023-06-26T12:44:54;14.20;99.90
20200;DHT22;36284;37.236;-121.934;2023-06-26T12:47:27;14.20;99.90
20200;DHT22;36284;37.236;-121.934;2023-06-26T12:49:55;14.30;99.90
20200;DHT22;36284;37.236;-121.934;2023-06-26T12:52:22;14.30;99.90
20200;DHT22;36284;37.236;-121.934;2023-06-26T12:54:54;14.30;99.90
20200;DHT22;36284;37.236;-121.934;2023-06-26T12:57:22;14.20;99.90
20200;DHT22;36284;37.236;-121.934;2023-06-26T12:59:49;14.30;99.90
20200;DHT22;36284;37.236;-121.934;2023-06-26T13:02:16;14.20;99.90
20200;DHT22;36284;37.236;-121.934;2023-06-26T13:04:43;14.20;99.90
20200;DHT22;36284;37.236;-121.934;2023-06-26T13:07:11;14.10;99.90
20200;DHT22;36284;37.236;-121.934;2023-06-26T13:09:38;14.10;99.90
20200;DHT22;36284;37.236;-121.934;2023-06-26T13:12:06;14.20;99.90
20200;DHT22;36284;37.236;-121.934;2023-06-26T13:14:33;14.30;99.90
20200;DHT22;36284;37.236;-121.934;2023-06-26T13:17:01;14.30;99.90
20200;DHT22;36284;37.236;-121.934;2023-06-26T13:19:28;14.10;99.90
20200;DHT22;36284;37.236;-121.934;2023-06-26T13:21:55;14.10;99.90
20200;DHT22;36284;37.236;-121.934;2023-06-26T13:24:22;14.10;99.90
20200;DHT22;36284;37.236;-121.934;2023-06-26T13:26:48;14.20;99.90
20200;DHT22;36284;37.236;-121.934;2023-06-26T13:29:15;14.10;99.90
20200;DHT22;36284;37.236;-121.934;2023-06-26T13:31:42;14.00;99.90
20200;DHT22;36284;37.236;-121.934;2023-06-26T13:34:20;14.00;99.90
20200;DHT22;36284;37.236;-121.934;2023-06-26T13:36:48;14.00;99.90
20200;DHT22;36284;37.236;-121.934;2023-06-26T13:39:15;14.10;99.90
20200;DHT22;36284;37.236;-121.934;2023-06-26T13:41:42;14.00;99.90
20200;DHT22;36284;37.236;-121.934;2023-06-26T13:44:09;14.20;99.90
20200;DHT22;36284;37.236;-121.934;2023-06-26T13:46:36;14.20;99.90
20200;DHT22;36284;37.236;-121.934;2023-06-26T13:49:03;14.30;99.90
20200;DHT22;36284;37.236;-121.934;2023-06-26T13:51:30;14.30;99.90
20200;DHT22;36284;37.236;-121.934;2023-06-26T13:53:56;14.40;99.90
20200;DHT22;36284;37.236;-121.934;2023-06-26T13:56:26;14.50;99.90
20200;DHT22;36284;37.236;-121.934;2023-06-26T13:58:54;14.40;99.90
20200;DHT22;36284;37.236;-121.934;2023-06-26T14:01:21;14.50;99.90
20200;DHT22;36284;37.236;-121.934;2023-06-26T14:03:48;14.50;99.90
20200;DHT22;36284;37.236;-121.934;2023-06-26T14:06:14;14.40;99.90
20200;DHT22;36284;37.236;-121.934;2023-06-26T14:08:41;14.40;99.90
20200;DHT22;36284;37.236;-121.934;2023-06-26T14:11:08;14.40;99.90
20200;DHT22;36284;37.236;-121.934;2023-06-26T14:13:35;14.50;99.90
20200;DHT22;36284;37.236;-121.934;2023-06-26T14:16:02;14.60;99.90
20200;DHT22;36284;37.236;-121.934;2023-06-26T14:18:29;14.60;99.90
20200;DHT22;36284;37.236;-121.934;2023-06-26T14:20:56;14.60;99.90
20200;DHT22;36284;37.236;-121.934;2023-06-26T14:23:23;14.50;99.90
20200;DHT22;36284;37.236;-121.934;2023-06-26T14:25:50;14.80;99.90
20200;DHT22;36284;37.236;-121.934;2023-06-26T14:28:17;15.10;99.90
20200;DHT22;36284;37.236;-121.934;2023-06-26T14:30:43;14.90;99.90
20200;DHT22;36284;37.236;-121.934;2023-06-26T14:33:10;15.20;99.90
20200;DHT22;36284;37.236;-121.934;2023-06-26T14:35:37;15.20;99.90
20200;DHT22;36284;37.236;-121.934;2023-06-26T14:38:04;15.40;99.90
20200;DHT22;36284;37.236;-121.934;2023-06-26T14:40:31;15.60;99.90
20200;DHT22;36284;37.236;-121.934;2023-06-26T14:42:58;15.40;99.90
20200;DHT22;36284;37.236;-121.934;2023-06-26T14:45:25;15.30;99.90
20200;DHT22;36284;37.236;-121.934;2023-06-26T14:47:52;15.40;99.90
20200;DHT22;36284;37.236;-121.934;2023-06-26T14:50:19;15.50;99.90
20200;DHT22;36284;37.236;-121.934;2023-06-26T14:52:46;15.00;99.90
20200;DHT22;36284;37.236;-121.934;2023-06-26T14:55:12;15.30;99.90
20200;DHT22;36284;37.236;-121.934;2023-06-26T14:57:39;15.40;99.90
20200;DHT22;36284;37.236;-121.934;2023-06-26T15:00:07;15.30;99.90
20200;DHT22;36284;37.236;-121.934;2023-06-26T15:02:34;15.40;99.90
20200;DHT22;36284;37.236;-121.934;2023-06-26T15:05:01;15.50;99.90
20200;DHT22;36284;37.236;-121.934;2023-06-26T15:07:28;15.20;99.90
20200;DHT22;36284;37.236;-121.934;2023-06-26T15:09:55;15.50;99.90
20200;DHT22;36284;37.236;-121.934;2023-06-26T15:12:22;15.60;99.90
20200;DHT22;36284;37.236;-121.934;2023-06-26T15:14:49;15.60;99.90
20200;DHT22;36284;37.236;-121.934;2023-06-26T15:17:17;15.60;99.90
20200;DHT22;36284;37.236;-121.934;2023-06-26T15:19:44;15.90;99.90